Time;durP1;ratioP1;P1;durP2;ratioP2;P2;SDS_P1;SDS_P2;PMS_P1;PMS_P2;Temp;Humidity;BMP_temperature;BMP_pressure;BME280_temperature;BME280_humidity;BME280_pressure;Samples;Min_cycle;Max_cycle;Signal;HPM_P1;HPM_P2
2024/01/23 00:08:33;;;;;;;;;;;8.60;99.90;;;;;;6730809;88;20510;-76
2024/01/23 00:18:34;;;;;;;;;;;8.80;99.90;;;;;;6731888;88;20177;-76
2024/01/23 00:28:34;;;;;;;;;;;8.80;99.90;;;;;;6729648;88;20561;-76
2024/01/23 00:38:35;;;;;;;;;;;8.80;99.90;;;;;;6728330;88;20137;-75
2024/01/23 00:48:35;;;;;;;;;;;8.60;99.90;;;;;;6729921;88;20137;-76
2024/01/23 00:58:35;;;;;;;;;;;8.60;99.90;;;;;;6739546;77;20062;-77
2024/01/23 01:08:36;;;;;;;;;;;8.50;99.90;;;;;;6736370;88;20902;-78
2024/01/23 01:18:39;;;;;;;;;;;8.30;99.90;;;;;;6733428;88;20154;-78
2024/01/23 01:28:40;;;;;;;;;;;8.30;99.90;;;;;;6734968;88;20747;-78
2024/01/23 01:38:40;;;;;;;;;;;8.30;99.90;;;;;;6736037;88;20073;-79
2024/01/23 01:48:41;;;;;;;;;;;8.30;99.90;;;;;;6734510;88;20058;-77
2024/01/23 01:58:45;;;;;;;;;;;8.20;99.90;;;;;;6731438;88;20083;-78
2024/01/23 02:08:47;;;;;;;;;;;8.30;99.90;;;;;;6733204;88;20112;-77
2024/01/23 02:18:47;;;;;;;;;;;8.20;99.90;;;;;;6729923;88;20096;-76
2024/01/23 02:28:48;;;;;;;;;;;8.20;99.90;;;;;;6736561;88;20193;-75
2024/01/23 02:38:48;;;;;;;;;;;8.10;99.90;;;;;;6735639;88;20081;-77
2024/01/23 02:48:49;;;;;;;;;;;8.00;99.90;;;;;;6743535;88;20574;-77
2024/01/23 02:58:49;;;;;;;;;;;7.90;99.90;;;;;;6729869;87;20163;-76
2024/01/23 03:08:50;;;;;;;;;;;7.90;99.90;;;;;;6725627;88;20051;-76
2024/01/23 03:18:50;;;;;;;;;;;7.80;99.90;;;;;;6730909;88;20153;-77
2024/01/23 03:28:50;;;;;;;;;;;7.80;99.90;;;;;;6726734;88;20158;-77
2024/01/23 03:38:51;;;;;;;;;;;7.80;99.90;;;;;;6728596;88;20055;-77
2024/01/23 03:48:51;;;;;;;;;;;7.80;99.90;;;;;;6729216;88;20070;-76
2024/01/23 03:58:52;;;;;;;;;;;7.70;99.90;;;;;;6727543;88;20055;-76
2024/01/23 04:08:52;;;;;;;;;;;7.60;99.90;;;;;;6737395;88;20069;-76
2024/01/23 04:18:55;;;;;;;;;;;7.60;99.90;;;;;;6727679;88;20229;-76
2024/01/23 04:28:56;;;;;;;;;;;7.70;99.90;;;;;;6727419;88;20074;-76
2024/01/23 04:38:57;;;;;;;;;;;7.70;99.90;;;;;;6728534;88;20075;-76
2024/01/23 04:48:57;;;;;;;;;;;7.50;99.90;;;;;;6727777;88;20080;-76
2024/01/23 04:58:58;;;;;;;;;;;7.50;99.90;;;;;;6730267;88;20103;-76
2024/01/23 05:08:58;;;;;;;;;;;7.40;99.90;;;;;;6728889;88;20062;-76
2024/01/23 05:18:59;;;;;;;;;;;7.30;99.90;;;;;;6724802;88;20528;-76
2024/01/23 05:28:59;;;;;;;;;;;7.30;99.90;;;;;;6729298;88;20186;-77
2024/01/23 05:39:00;;;;;;;;;;;7.10;99.90;;;;;;6723098;88;20617;-77
2024/01/23 05:49:00;;;;;;;;;;;6.90;99.90;;;;;;6724639;88;20552;-77
2024/01/23 05:59:01;;;;;;;;;;;6.90;99.90;;;;;;6724291;88;20093;-78
2024/01/23 06:09:02;;;;;;;;;;;6.70;99.90;;;;;;6726495;88;20070;-76
2024/01/23 06:19:03;;;;;;;;;;;6.70;99.90;;;;;;6725907;88;20209;-77
2024/01/23 06:29:04;;;;;;;;;;;6.80;99.90;;;;;;6722367;88;20168;-77
2024/01/23 06:39:05;;;;;;;;;;;6.70;99.90;;;;;;6728915;88;20116;-77
2024/01/23 06:49:05;;;;;;;;;;;6.60;99.90;;;;;;6727536;88;20807;-77
2024/01/23 06:59:07;;;;;;;;;;;6.60;99.90;;;;;;6723308;88;20053;-76
2024/01/23 07:09:20;;;;;;;;;;;6.60;99.90;;;;;;6731314;88;20080;-79
2024/01/23 07:19:20;;;;;;;;;;;6.50;99.90;;;;;;6729331;88;20082;-77
2024/01/23 07:29:21;;;;;;;;;;;6.30;99.90;;;;;;6733341;88;20128;-77
2024/01/23 07:39:22;;;;;;;;;;;6.30;99.90;;;;;;6732603;88;20104;-77
2024/01/23 07:49:22;;;;;;;;;;;6.30;99.90;;;;;;6731928;88;20571;-76
2024/01/23 07:59:23;;;;;;;;;;;6.30;99.90;;;;;;6734782;88;20180;-77
2024/01/23 08:09:23;;;;;;;;;;;6.40;99.90;;;;;;6733320;88;20143;-77
2024/01/23 08:19:24;;;;;;;;;;;6.40;99.90;;;;;;6733235;88;20551;-76
2024/01/23 08:29:25;;;;;;;;;;;6.60;99.90;;;;;;6747338;88;20095;-76
2024/01/23 08:39:25;;;;;;;;;;;6.70;99.90;;;;;;6722118;88;20097;-76
2024/01/23 08:49:26;;;;;;;;;;;6.90;99.90;;;;;;6722122;88;20525;-77
2024/01/23 08:59:28;;;;;;;;;;;7.20;99.90;;;;;;6724717;88;20070;-76
2024/01/23 09:09:29;;;;;;;;;;;7.70;99.90;;;;;;6724392;88;20055;-77
2024/01/23 09:19:29;;;;;;;;;;;8.20;99.90;;;;;;6724668;88;20661;-77
2024/01/23 09:29:30;;;;;;;;;;;8.40;99.90;;;;;;6726898;88;20103;-77
2024/01/23 09:39:31;;;;;;;;;;;8.90;99.90;;;;;;6725615;88;20540;-77
2024/01/23 09:49:32;;;;;;;;;;;9.30;99.90;;;;;;6735952;88;20058;-77
2024/01/23 09:59:32;;;;;;;;;;;9.20;99.90;;;;;;6726703;88;20440;-77
2024/01/23 10:09:33;;;;;;;;;;;9.70;99.90;;;;;;6728708;88;20096;-77
2024/01/23 10:19:33;;;;;;;;;;;9.90;99.90;;;;;;6724980;88;20190;-77
2024/01/23 10:29:34;;;;;;;;;;;10.50;99.90;;;;;;6727291;88;20075;-77
2024/01/23 10:39:35;;;;;;;;;;;11.00;99.90;;;;;;6730119;88;20112;-77
2024/01/23 10:49:36;;;;;;;;;;;11.20;99.90;;;;;;6726540;88;20065;-77
2024/01/23 10:59:37;;;;;;;;;;;11.10;99.90;;;;;;6727797;88;20107;-77
2024/01/23 11:09:44;;;;;;;;;;;11.50;99.90;;;;;;6721559;88;20073;-77
2024/01/23 11:19:59;;;;;;;;;;;11.10;99.90;;;;;;6724404;88;20067;-77
2024/01/23 11:30:00;;;;;;;;;;;11.40;99.90;;;;;;6732760;88;20082;-77
2024/01/23 11:40:04;;;;;;;;;;;11.40;99.90;;;;;;6727120;88;20072;-76
2024/01/23 11:50:06;;;;;;;;;;;11.80;99.90;;;;;;6734407;88;20054;-77
2024/01/23 12:00:07;;;;;;;;;;;12.50;99.90;;;;;;6728858;88;20084;-77
2024/01/23 12:10:08;;;;;;;;;;;11.00;99.90;;;;;;6727565;88;20047;-77
2024/01/23 12:20:11;;;;;;;;;;;10.50;99.90;;;;;;6735274;88;20080;-78
2024/01/23 12:30:16;;;;;;;;;;;10.40;99.90;;;;;;6729420;88;20076;-78
2024/01/23 12:40:16;;;;;;;;;;;10.50;99.90;;;;;;6724651;88;20548;-78
2024/01/23 12:50:19;;;;;;;;;;;10.40;99.90;;;;;;6739660;88;20051;-77
2024/01/23 13:00:20;;;;;;;;;;;10.30;99.90;;;;;;6732423;88;20483;-78
2024/01/23 13:10:21;;;;;;;;;;;10.40;99.90;;;;;;6759710;77;20077;-77
2024/01/23 13:20:23;;;;;;;;;;;10.50;99.90;;;;;;6756036;87;20612;-76
2024/01/23 13:30:29;;;;;;;;;;;10.20;99.90;;;;;;6740662;88;20042;-76
2024/01/23 13:40:29;;;;;;;;;;;10.00;99.90;;;;;;6754771;87;20590;-77
2024/01/23 13:50:30;;;;;;;;;;;9.90;99.90;;;;;;6760767;87;20058;-77
2024/01/23 14:00:30;;;;;;;;;;;9.80;99.90;;;;;;6742969;88;20610;-76
2024/01/23 14:10:31;;;;;;;;;;;9.80;99.90;;;;;;6752833;87;20061;-78
2024/01/23 14:20:31;;;;;;;;;;;9.60;99.90;;;;;;6752272;87;20586;-77
2024/01/23 14:30:32;;;;;;;;;;;9.60;99.90;;;;;;6752248;87;20189;-76
2024/01/23 14:40:32;;;;;;;;;;;9.50;99.90;;;;;;6752815;87;20582;-77
2024/01/23 14:50:32;;;;;;;;;;;9.40;99.90;;;;;;6750035;87;20062;-77
2024/01/23 15:00:33;;;;;;;;;;;9.30;99.90;;;;;;6750702;87;20072;-76
2024/01/23 15:10:33;;;;;;;;;;;9.10;99.90;;;;;;6752239;87;20054;-76
2024/01/23 15:20:35;;;;;;;;;;;8.90;99.90;;;;;;6751932;88;20592;-77
2024/01/23 15:30:35;;;;;;;;;;;8.60;99.90;;;;;;6750305;87;20058;-76
2024/01/23 15:40:35;;;;;;;;;;;8.20;99.90;;;;;;6753320;87;20078;-76
2024/01/23 15:50:36;;;;;;;;;;;7.90;99.90;;;;;;6749753;87;20081;-75
2024/01/23 16:00:36;;;;;;;;;;;7.60;99.90;;;;;;6753711;87;20611;-75
2024/01/23 16:10:37;;;;;;;;;;;7.50;99.90;;;;;;6752925;87;20084;-77
2024/01/23 16:20:37;;;;;;;;;;;7.40;99.90;;;;;;6755803;87;20232;-77
2024/01/23 16:30:38;;;;;;;;;;;7.30;99.90;;;;;;6759651;88;20078;-76
2024/01/23 16:40:38;;;;;;;;;;;7.20;99.90;;;;;;6751495;88;20513;-76
2024/01/23 16:50:39;;;;;;;;;;;7.30;99.90;;;;;;6749464;87;20112;-76
2024/01/23 17:00:40;;;;;;;;;;;7.30;99.90;;;;;;6754343;87;20119;-77
2024/01/23 17:10:40;;;;;;;;;;;7.40;99.90;;;;;;6754404;87;20124;-75
2024/01/23 17:20:40;;;;;;;;;;;7.50;99.90;;;;;;6759104;87;20504;-75
2024/01/23 17:30:41;;;;;;;;;;;7.60;99.90;;;;;;6755138;87;20065;-75
2024/01/23 17:40:42;;;;;;;;;;;7.60;99.90;;;;;;6746892;87;20062;-74
2024/01/23 17:50:42;;;;;;;;;;;7.60;99.90;;;;;;6752242;87;20065;-75
2024/01/23 18:00:43;;;;;;;;;;;7.50;99.90;;;;;;6752765;87;20057;-77
2024/01/23 18:10:43;;;;;;;;;;;7.60;99.90;;;;;;6753281;87;20124;-76
2024/01/23 18:20:44;;;;;;;;;;;7.70;99.90;;;;;;6754012;87;20050;-77
2024/01/23 18:30:44;;;;;;;;;;;7.60;99.90;;;;;;6764443;87;20239;-75
2024/01/23 18:40:45;;;;;;;;;;;7.60;99.90;;;;;;6750779;88;20050;-74
2024/01/23 18:50:45;;;;;;;;;;;7.60;99.90;;;;;;6750685;88;20074;-75
2024/01/23 19:00:46;;;;;;;;;;;7.60;99.90;;;;;;6754888;87;20082;-75
2024/01/23 19:10:46;;;;;;;;;;;7.80;99.90;;;;;;6751198;76;20510;-74
2024/01/23 19:20:47;;;;;;;;;;;8.00;99.90;;;;;;6728890;88;20242;-74
2024/01/23 19:30:47;;;;;;;;;;;8.10;99.90;;;;;;6723477;88;20222;-75
2024/01/23 19:40:48;;;;;;;;;;;8.10;99.90;;;;;;6716681;88;20092;-76
2024/01/23 19:50:49;;;;;;;;;;;8.40;99.90;;;;;;6716342;88;20620;-76
2024/01/23 20:00:50;;;;;;;;;;;8.60;99.90;;;;;;6717297;88;20137;-77
2024/01/23 20:10:50;;;;;;;;;;;8.80;99.90;;;;;;6711406;88;20550;-77
2024/01/23 20:20:51;;;;;;;;;;;8.70;99.90;;;;;;6721156;88;20053;-77
2024/01/23 20:30:51;;;;;;;;;;;8.90;99.90;;;;;;6724013;88;20068;-76
2024/01/23 20:40:52;;;;;;;;;;;9.10;99.90;;;;;;6718547;88;20487;-76
2024/01/23 20:50:52;;;;;;;;;;;9.10;99.90;;;;;;6718424;88;20072;-75
2024/01/23 21:00:53;;;;;;;;;;;9.10;99.90;;;;;;6723108;88;20525;-76
2024/01/23 21:10:53;;;;;;;;;;;9.10;99.90;;;;;;6722123;88;20581;-77
2024/01/23 21:20:54;;;;;;;;;;;9.30;99.90;;;;;;6716328;88;20252;-77
2024/01/23 21:30:55;;;;;;;;;;;9.30;99.90;;;;;;6712867;88;20130;-75
2024/01/23 21:40:56;;;;;;;;;;;9.00;99.90;;;;;;6720159;88;20171;-75
2024/01/23 21:50:56;;;;;;;;;;;9.30;99.90;;;;;;6720166;88;20492;-74
2024/01/23 22:00:58;;;;;;;;;;;10.20;99.90;;;;;;6714744;88;20162;-75
2024/01/23 22:10:59;;;;;;;;;;;10.50;99.90;;;;;;6716743;88;20121;-76
2024/01/23 22:20:59;;;;;;;;;;;10.70;99.90;;;;;;6722847;88;20108;-76
2024/01/23 22:31:00;;;;;;;;;;;10.90;99.90;;;;;;6727007;88;20063;-76
2024/01/23 22:41:01;;;;;;;;;;;11.20;99.90;;;;;;6725037;86;20184;-76
2024/01/23 22:51:01;;;;;;;;;;;11.20;99.90;;;;;;6727180;88;20117;-76
2024/01/23 23:01:04;;;;;;;;;;;11.10;99.90;;;;;;6714734;88;20099;-76
2024/01/23 23:11:04;;;;;;;;;;;11.10;99.90;;;;;;6722442;88;20079;-77
2024/01/23 23:21:05;;;;;;;;;;;11.40;99.90;;;;;;6719820;88;20056;-77
2024/01/23 23:31:05;;;;;;;;;;;11.50;99.90;;;;;;6717657;88;20235;-77
2024/01/23 23:41:06;;;;;;;;;;;11.60;99.90;;;;;;6715638;88;20067;-76
2024/01/23 23:51:06;;;;;;;;;;;11.80;99.90;;;;;;6716303;88;20082;-77
